sensor_id;sensor_type;location;lat;lon;timestamp;P1;durP1;ratioP1;P2;durP2;ratioP2
24161;SDS011;12318;51.262;7.066;2023-02-28T00:00:30;9.95;;;4.20;;
24161;SDS011;12318;51.262;7.066;2023-02-28T00:03:07;7.43;;;3.40;;
24161;SDS011;12318;51.262;7.066;2023-02-28T00:05:36;7.75;;;3.67;;
24161;SDS011;12318;51.262;7.066;2023-02-28T00:08:02;6.80;;;3.67;;
24161;SDS011;12318;51.262;7.066;2023-02-28T00:10:29;8.13;;;3.80;;
24161;SDS011;12318;51.262;7.066;2023-02-28T00:13:02;7.63;;;3.50;;
24161;SDS011;12318;51.262;7.066;2023-02-28T00:15:30;7.20;;;3.75;;
24161;SDS011;12318;51.262;7.066;2023-02-28T00:17:57;7.18;;;3.60;;
24161;SDS011;12318;51.262;7.066;2023-02-28T00:20:23;9.65;;;3.97;;
24161;SDS011;12318;51.262;7.066;2023-02-28T00:22:50;9.15;;;4.18;;
24161;SDS011;12318;51.262;7.066;2023-02-28T00:25:18;10.45;;;4.03;;
24161;SDS011;12318;51.262;7.066;2023-02-28T00:27:46;10.45;;;4.35;;
24161;SDS011;12318;51.262;7.066;2023-02-28T00:30:16;9.55;;;4.30;;
24161;SDS011;12318;51.262;7.066;2023-02-28T00:32:43;8.93;;;3.58;;
24161;SDS011;12318;51.262;7.066;2023-02-28T00:35:10;7.82;;;3.38;;
24161;SDS011;12318;51.262;7.066;2023-02-28T00:37:36;8.60;;;3.75;;
24161;SDS011;12318;51.262;7.066;2023-02-28T00:40:03;11.30;;;4.05;;
24161;SDS011;12318;51.262;7.066;2023-02-28T00:42:34;8.95;;;3.90;;
24161;SDS011;12318;51.262;7.066;2023-02-28T00:45:07;8.95;;;3.80;;
24161;SDS011;12318;51.262;7.066;2023-02-28T00:47:33;7.68;;;3.50;;
24161;SDS011;12318;51.262;7.066;2023-02-28T00:50:02;8.52;;;3.70;;
24161;SDS011;12318;51.262;7.066;2023-02-28T00:52:28;8.90;;;3.55;;
24161;SDS011;12318;51.262;7.066;2023-02-28T00:54:59;8.98;;;3.90;;
24161;SDS011;12318;51.262;7.066;2023-02-28T00:57:25;10.82;;;4.03;;
24161;SDS011;12318;51.262;7.066;2023-02-28T00:59:52;12.63;;;4.03;;
24161;SDS011;12318;51.262;7.066;2023-02-28T01:02:39;7.03;;;4.00;;
24161;SDS011;12318;51.262;7.066;2023-02-28T01:05:05;9.85;;;4.32;;
24161;SDS011;12318;51.262;7.066;2023-02-28T01:07:31;11.73;;;4.30;;
24161;SDS011;12318;51.262;7.066;2023-02-28T01:09:57;11.15;;;4.25;;
24161;SDS011;12318;51.262;7.066;2023-02-28T01:12:23;11.55;;;4.57;;
24161;SDS011;12318;51.262;7.066;2023-02-28T01:14:51;6.60;;;3.75;;
24161;SDS011;12318;51.262;7.066;2023-02-28T01:17:17;9.95;;;4.32;;
24161;SDS011;12318;51.262;7.066;2023-02-28T01:19:43;7.53;;;3.88;;
24161;SDS011;12318;51.262;7.066;2023-02-28T01:22:08;8.13;;;3.88;;
24161;SDS011;12318;51.262;7.066;2023-02-28T01:24:35;11.05;;;4.72;;
24161;SDS011;12318;51.262;7.066;2023-02-28T01:27:04;8.45;;;4.68;;
24161;SDS011;12318;51.262;7.066;2023-02-28T01:29:30;9.02;;;5.10;;
24161;SDS011;12318;51.262;7.066;2023-02-28T01:32:01;14.93;;;4.80;;
24161;SDS011;12318;51.262;7.066;2023-02-28T01:34:27;11.98;;;4.85;;
24161;SDS011;12318;51.262;7.066;2023-02-28T01:36:53;7.38;;;4.32;;
24161;SDS011;12318;51.262;7.066;2023-02-28T01:39:22;8.20;;;4.60;;
24161;SDS011;12318;51.262;7.066;2023-02-28T01:41:51;10.52;;;4.28;;
24161;SDS011;12318;51.262;7.066;2023-02-28T01:47:23;9.52;;;4.40;;
24161;SDS011;12318;51.262;7.066;2023-02-28T01:49:57;9.27;;;4.10;;
24161;SDS011;12318;51.262;7.066;2023-02-28T01:52:25;8.10;;;3.78;;
24161;SDS011;12318;51.262;7.066;2023-02-28T01:54:53;9.90;;;3.92;;
24161;SDS011;12318;51.262;7.066;2023-02-28T02:02:23;8.90;;;4.43;;
24161;SDS011;12318;51.262;7.066;2023-02-28T02:04:53;7.90;;;4.85;;
24161;SDS011;12318;51.262;7.066;2023-02-28T02:07:23;9.82;;;4.82;;
24161;SDS011;12318;51.262;7.066;2023-02-28T02:09:59;14.27;;;5.50;;
24161;SDS011;12318;51.262;7.066;2023-02-28T02:15:34;9.57;;;4.85;;
24161;SDS011;12318;51.262;7.066;2023-02-28T02:18:48;11.77;;;5.75;;
24161;SDS011;12318;51.262;7.066;2023-02-28T02:21:01;13.40;;;6.18;;
24161;SDS011;12318;51.262;7.066;2023-02-28T02:23:56;8.38;;;5.35;;
24161;SDS011;12318;51.262;7.066;2023-02-28T02:37:52;17.90;;;6.47;;
24161;SDS011;12318;51.262;7.066;2023-02-28T02:40:27;15.30;;;7.00;;
24161;SDS011;12318;51.262;7.066;2023-02-28T02:43:05;11.52;;;6.85;;
24161;SDS011;12318;51.262;7.066;2023-02-28T02:45:48;17.23;;;6.63;;
24161;SDS011;12318;51.262;7.066;2023-02-28T02:48:20;13.45;;;6.38;;
24161;SDS011;12318;51.262;7.066;2023-02-28T02:50:55;12.05;;;5.78;;
24161;SDS011;12318;51.262;7.066;2023-02-28T02:53:30;16.13;;;6.65;;
24161;SDS011;12318;51.262;7.066;2023-02-28T02:56:01;13.85;;;6.60;;
24161;SDS011;12318;51.262;7.066;2023-02-28T02:58:29;14.05;;;6.47;;
24161;SDS011;12318;51.262;7.066;2023-02-28T03:01:04;15.05;;;6.80;;
24161;SDS011;12318;51.262;7.066;2023-02-28T03:03:30;10.90;;;5.75;;
24161;SDS011;12318;51.262;7.066;2023-02-28T03:06:02;10.57;;;6.10;;
24161;SDS011;12318;51.262;7.066;2023-02-28T03:08:33;13.73;;;6.40;;
24161;SDS011;12318;51.262;7.066;2023-02-28T03:11:04;8.35;;;4.60;;
24161;SDS011;12318;51.262;7.066;2023-02-28T03:16:49;8.48;;;5.07;;
24161;SDS011;12318;51.262;7.066;2023-02-28T03:24:51;10.57;;;4.45;;
24161;SDS011;12318;51.262;7.066;2023-02-28T03:27:24;9.98;;;4.93;;
24161;SDS011;12318;51.262;7.066;2023-02-28T03:29:54;12.15;;;4.60;;
24161;SDS011;12318;51.262;7.066;2023-02-28T03:35:19;8.55;;;4.25;;
24161;SDS011;12318;51.262;7.066;2023-02-28T03:37:53;8.73;;;4.40;;
24161;SDS011;12318;51.262;7.066;2023-02-28T03:40:27;6.75;;;3.88;;
24161;SDS011;12318;51.262;7.066;2023-02-28T03:42:59;10.85;;;4.28;;
24161;SDS011;12318;51.262;7.066;2023-02-28T03:45:33;9.00;;;4.10;;
24161;SDS011;12318;51.262;7.066;2023-02-28T03:48:13;8.50;;;3.97;;
24161;SDS011;12318;51.262;7.066;2023-02-28T03:50:43;10.85;;;4.22;;
24161;SDS011;12318;51.262;7.066;2023-02-28T03:53:20;9.50;;;3.92;;
24161;SDS011;12318;51.262;7.066;2023-02-28T03:55:59;9.15;;;4.13;;
24161;SDS011;12318;51.262;7.066;2023-02-28T03:58:47;6.90;;;3.70;;
24161;SDS011;12318;51.262;7.066;2023-02-28T04:01:45;8.23;;;4.15;;
24161;SDS011;12318;51.262;7.066;2023-02-28T04:04:11;6.93;;;3.33;;
24161;SDS011;12318;51.262;7.066;2023-02-28T04:06:40;8.27;;;3.30;;
24161;SDS011;12318;51.262;7.066;2023-02-28T04:09:07;7.03;;;3.38;;
24161;SDS011;12318;51.262;7.066;2023-02-28T04:11:46;7.68;;;3.35;;
24161;SDS011;12318;51.262;7.066;2023-02-28T04:14:22;4.65;;;3.15;;
24161;SDS011;12318;51.262;7.066;2023-02-28T04:16:54;6.30;;;3.00;;
24161;SDS011;12318;51.262;7.066;2023-02-28T04:19:20;7.55;;;3.15;;
24161;SDS011;12318;51.262;7.066;2023-02-28T04:21:47;7.80;;;3.35;;
24161;SDS011;12318;51.262;7.066;2023-02-28T04:24:17;6.45;;;2.83;;
24161;SDS011;12318;51.262;7.066;2023-02-28T04:26:46;8.65;;;3.25;;
24161;SDS011;12318;51.262;7.066;2023-02-28T04:29:21;8.25;;;3.40;;
24161;SDS011;12318;51.262;7.066;2023-02-28T04:31:59;8.15;;;3.50;;
24161;SDS011;12318;51.262;7.066;2023-02-28T04:34:28;5.25;;;3.08;;
24161;SDS011;12318;51.262;7.066;2023-02-28T04:36:56;5.15;;;3.00;;
24161;SDS011;12318;51.262;7.066;2023-02-28T04:39:25;6.70;;;2.88;;
24161;SDS011;12318;51.262;7.066;2023-02-28T04:41:51;7.25;;;3.00;;
24161;SDS011;12318;51.262;7.066;2023-02-28T04:47:41;6.57;;;3.28;;
24161;SDS011;12318;51.262;7.066;2023-02-28T04:50:07;6.05;;;3.03;;
24161;SDS011;12318;51.262;7.066;2023-02-28T04:52:33;7.70;;;3.50;;
24161;SDS011;12318;51.262;7.066;2023-02-28T04:54:59;6.47;;;3.33;;
24161;SDS011;12318;51.262;7.066;2023-02-28T04:57:25;6.15;;;3.20;;
24161;SDS011;12318;51.262;7.066;2023-02-28T04:59:55;7.88;;;3.17;;
24161;SDS011;12318;51.262;7.066;2023-02-28T05:02:20;5.47;;;3.03;;
24161;SDS011;12318;51.262;7.066;2023-02-28T05:04:47;5.55;;;2.97;;
24161;SDS011;12318;51.262;7.066;2023-02-28T05:07:13;5.13;;;2.63;;
24161;SDS011;12318;51.262;7.066;2023-02-28T05:09:42;5.88;;;3.20;;
24161;SDS011;12318;51.262;7.066;2023-02-28T05:12:08;7.50;;;3.22;;
24161;SDS011;12318;51.262;7.066;2023-02-28T05:14:35;6.30;;;3.30;;
24161;SDS011;12318;51.262;7.066;2023-02-28T05:17:01;6.65;;;3.33;;
24161;SDS011;12318;51.262;7.066;2023-02-28T05:19:30;5.63;;;3.08;;
24161;SDS011;12318;51.262;7.066;2023-02-28T05:21:56;7.50;;;3.03;;
24161;SDS011;12318;51.262;7.066;2023-02-28T05:24:24;8.63;;;2.97;;
24161;SDS011;12318;51.262;7.066;2023-02-28T05:26:53;8.60;;;3.17;;
24161;SDS011;12318;51.262;7.066;2023-02-28T05:29:22;7.55;;;3.03;;
24161;SDS011;12318;51.262;7.066;2023-02-28T05:31:50;6.15;;;3.15;;
24161;SDS011;12318;51.262;7.066;2023-02-28T05:34:17;7.22;;;3.00;;
24161;SDS011;12318;51.262;7.066;2023-02-28T05:36:43;8.07;;;3.10;;
24161;SDS011;12318;51.262;7.066;2023-02-28T05:39:09;5.30;;;3.25;;
24161;SDS011;12318;51.262;7.066;2023-02-28T05:41:44;5.95;;;3.30;;
24161;SDS011;12318;51.262;7.066;2023-02-28T05:44:12;5.97;;;3.05;;
24161;SDS011;12318;51.262;7.066;2023-02-28T05:46:41;4.30;;;3.13;;
24161;SDS011;12318;51.262;7.066;2023-02-28T05:49:12;9.85;;;3.13;;
24161;SDS011;12318;51.262;7.066;2023-02-28T05:51:37;6.45;;;3.10;;
24161;SDS011;12318;51.262;7.066;2023-02-28T05:54:05;5.97;;;3.25;;
24161;SDS011;12318;51.262;7.066;2023-02-28T05:56:33;5.55;;;3.08;;
24161;SDS011;12318;51.262;7.066;2023-02-28T05:59:02;6.20;;;3.20;;
24161;SDS011;12318;51.262;7.066;2023-02-28T06:04:04;7.03;;;3.28;;
24161;SDS011;12318;51.262;7.066;2023-02-28T06:06:33;4.97;;;3.17;;
24161;SDS011;12318;51.262;7.066;2023-02-28T06:09:02;5.18;;;2.95;;
24161;SDS011;12318;51.262;7.066;2023-02-28T06:11:36;7.82;;;3.28;;
24161;SDS011;12318;51.262;7.066;2023-02-28T06:14:06;6.38;;;2.90;;
24161;SDS011;12318;51.262;7.066;2023-02-28T06:16:33;6.82;;;3.10;;
24161;SDS011;12318;51.262;7.066;2023-02-28T06:19:04;5.32;;;2.92;;
24161;SDS011;12318;51.262;7.066;2023-02-28T06:21:30;5.85;;;3.33;;
24161;SDS011;12318;51.262;7.066;2023-02-28T06:23:59;5.32;;;3.20;;
24161;SDS011;12318;51.262;7.066;2023-02-28T06:26:26;10.73;;;3.58;;
24161;SDS011;12318;51.262;7.066;2023-02-28T06:28:57;6.95;;;3.47;;
24161;SDS011;12318;51.262;7.066;2023-02-28T06:31:28;9.00;;;3.17;;
24161;SDS011;12318;51.262;7.066;2023-02-28T06:34:06;7.00;;;3.08;;
24161;SDS011;12318;51.262;7.066;2023-02-28T06:36:40;5.85;;;2.92;;
24161;SDS011;12318;51.262;7.066;2023-02-28T06:39:07;6.50;;;2.92;;
24161;SDS011;12318;51.262;7.066;2023-02-28T06:41:47;4.65;;;2.38;;
24161;SDS011;12318;51.262;7.066;2023-02-28T06:44:16;6.47;;;3.47;;
24161;SDS011;12318;51.262;7.066;2023-02-28T06:47:04;5.85;;;3.22;;
24161;SDS011;12318;51.262;7.066;2023-02-28T06:49:36;5.55;;;3.08;;
24161;SDS011;12318;51.262;7.066;2023-02-28T06:52:04;7.95;;;2.85;;
24161;SDS011;12318;51.262;7.066;2023-02-28T06:54:30;7.95;;;3.40;;
24161;SDS011;12318;51.262;7.066;2023-02-28T06:56:57;5.55;;;3.22;;
24161;SDS011;12318;51.262;7.066;2023-02-28T06:59:41;8.55;;;3.33;;
24161;SDS011;12318;51.262;7.066;2023-02-28T07:02:11;5.22;;;3.05;;
24161;SDS011;12318;51.262;7.066;2023-02-28T07:04:37;5.00;;;3.22;;
24161;SDS011;12318;51.262;7.066;2023-02-28T07:07:05;9.65;;;3.08;;
24161;SDS011;12318;51.262;7.066;2023-02-28T07:09:31;5.63;;;2.83;;
24161;SDS011;12318;51.262;7.066;2023-02-28T07:12:02;6.05;;;3.17;;
24161;SDS011;12318;51.262;7.066;2023-02-28T07:14:36;5.15;;;3.08;;
24161;SDS011;12318;51.262;7.066;2023-02-28T07:17:06;6.63;;;3.00;;
24161;SDS011;12318;51.262;7.066;2023-02-28T07:19:39;6.22;;;2.90;;
24161;SDS011;12318;51.262;7.066;2023-02-28T07:22:05;4.78;;;2.70;;
24161;SDS011;12318;51.262;7.066;2023-02-28T07:24:32;5.43;;;2.72;;
24161;SDS011;12318;51.262;7.066;2023-02-28T07:26:58;6.60;;;2.75;;
24161;SDS011;12318;51.262;7.066;2023-02-28T07:29:29;6.43;;;3.10;;
24161;SDS011;12318;51.262;7.066;2023-02-28T07:31:55;5.72;;;3.10;;
24161;SDS011;12318;51.262;7.066;2023-02-28T07:34:22;8.23;;;3.13;;
24161;SDS011;12318;51.262;7.066;2023-02-28T07:36:48;5.03;;;3.40;;
24161;SDS011;12318;51.262;7.066;2023-02-28T07:39:25;5.70;;;3.28;;
24161;SDS011;12318;51.262;7.066;2023-02-28T07:41:51;11.93;;;3.17;;
24161;SDS011;12318;51.262;7.066;2023-02-28T07:44:23;5.07;;;3.08;;
24161;SDS011;12318;51.262;7.066;2023-02-28T07:46:48;4.63;;;2.90;;
24161;SDS011;12318;51.262;7.066;2023-02-28T07:49:14;6.63;;;3.03;;
24161;SDS011;12318;51.262;7.066;2023-02-28T07:51:40;4.85;;;2.67;;
24161;SDS011;12318;51.262;7.066;2023-02-28T07:54:06;5.25;;;3.05;;
24161;SDS011;12318;51.262;7.066;2023-02-28T07:56:32;6.90;;;2.85;;
24161;SDS011;12318;51.262;7.066;2023-02-28T07:58:58;5.55;;;2.75;;
24161;SDS011;12318;51.262;7.066;2023-02-28T08:01:24;6.88;;;3.10;;
24161;SDS011;12318;51.262;7.066;2023-02-28T08:03:50;10.40;;;3.20;;
24161;SDS011;12318;51.262;7.066;2023-02-28T08:06:17;4.88;;;2.60;;
24161;SDS011;12318;51.262;7.066;2023-02-28T08:08:48;5.13;;;2.70;;
24161;SDS011;12318;51.262;7.066;2023-02-28T08:11:15;7.82;;;2.63;;
24161;SDS011;12318;51.262;7.066;2023-02-28T08:13:49;4.55;;;2.55;;
24161;SDS011;12318;51.262;7.066;2023-02-28T08:16:18;5.07;;;2.45;;
24161;SDS011;12318;51.262;7.066;2023-02-28T08:18:53;6.22;;;2.28;;
24161;SDS011;12318;51.262;7.066;2023-02-28T08:21:22;6.43;;;2.40;;
24161;SDS011;12318;51.262;7.066;2023-02-28T08:23:48;3.03;;;2.03;;
24161;SDS011;12318;51.262;7.066;2023-02-28T08:26:16;3.92;;;2.08;;
24161;SDS011;12318;51.262;7.066;2023-02-28T08:28:42;6.18;;;2.25;;
24161;SDS011;12318;51.262;7.066;2023-02-28T08:31:10;5.93;;;2.00;;
24161;SDS011;12318;51.262;7.066;2023-02-28T08:33:37;5.30;;;1.70;;
24161;SDS011;12318;51.262;7.066;2023-02-28T08:36:04;2.97;;;1.60;;
24161;SDS011;12318;51.262;7.066;2023-02-28T08:38:31;4.90;;;2.05;;
24161;SDS011;12318;51.262;7.066;2023-02-28T08:40:58;3.63;;;1.60;;
24161;SDS011;12318;51.262;7.066;2023-02-28T08:43:25;4.18;;;1.90;;
24161;SDS011;12318;51.262;7.066;2023-02-28T08:45:55;3.33;;;1.70;;
24161;SDS011;12318;51.262;7.066;2023-02-28T08:48:24;4.38;;;2.03;;
24161;SDS011;12318;51.262;7.066;2023-02-28T08:50:58;4.03;;;1.88;;
24161;SDS011;12318;51.262;7.066;2023-02-28T08:53:26;3.88;;;2.30;;
24161;SDS011;12318;51.262;7.066;2023-02-28T08:55:55;2.80;;;1.83;;
24161;SDS011;12318;51.262;7.066;2023-02-28T08:58:22;3.33;;;2.03;;
24161;SDS011;12318;51.262;7.066;2023-02-28T09:00:48;5.13;;;2.10;;
24161;SDS011;12318;51.262;7.066;2023-02-28T09:03:15;5.13;;;1.95;;
24161;SDS011;12318;51.262;7.066;2023-02-28T09:05:40;4.00;;;2.30;;
24161;SDS011;12318;51.262;7.066;2023-02-28T09:08:06;7.28;;;2.00;;
24161;SDS011;12318;51.262;7.066;2023-02-28T09:10:32;6.00;;;2.28;;
24161;SDS011;12318;51.262;7.066;2023-02-28T09:12:59;3.72;;;2.00;;
24161;SDS011;12318;51.262;7.066;2023-02-28T09:15:25;5.95;;;1.90;;
24161;SDS011;12318;51.262;7.066;2023-02-28T09:17:51;3.88;;;1.88;;
24161;SDS011;12318;51.262;7.066;2023-02-28T09:20:17;3.70;;;1.80;;
24161;SDS011;12318;51.262;7.066;2023-02-28T09:22:42;3.90;;;1.70;;
24161;SDS011;12318;51.262;7.066;2023-02-28T09:25:08;3.20;;;1.73;;
24161;SDS011;12318;51.262;7.066;2023-02-28T09:27:34;3.92;;;1.80;;
24161;SDS011;12318;51.262;7.066;2023-02-28T09:30:00;4.82;;;1.92;;
24161;SDS011;12318;51.262;7.066;2023-02-28T09:32:26;5.05;;;1.80;;
24161;SDS011;12318;51.262;7.066;2023-02-28T09:34:51;2.90;;;1.70;;
24161;SDS011;12318;51.262;7.066;2023-02-28T09:37:17;4.65;;;2.25;;
24161;SDS011;12318;51.262;7.066;2023-02-28T09:39:43;4.70;;;2.03;;
24161;SDS011;12318;51.262;7.066;2023-02-28T09:42:13;4.13;;;2.10;;
24161;SDS011;12318;51.262;7.066;2023-02-28T09:44:47;3.17;;;1.75;;
24161;SDS011;12318;51.262;7.066;2023-02-28T09:47:25;9.63;;;1.92;;
24161;SDS011;12318;51.262;7.066;2023-02-28T09:49:56;5.73;;;1.83;;
24161;SDS011;12318;51.262;7.066;2023-02-28T09:52:29;6.95;;;2.22;;
24161;SDS011;12318;51.262;7.066;2023-02-28T09:54:59;4.93;;;2.13;;
24161;SDS011;12318;51.262;7.066;2023-02-28T09:57:48;3.78;;;1.75;;
24161;SDS011;12318;51.262;7.066;2023-02-28T10:05:50;3.17;;;1.85;;
24161;SDS011;12318;51.262;7.066;2023-02-28T10:10:56;6.03;;;1.95;;
24161;SDS011;12318;51.262;7.066;2023-02-28T10:14:10;5.28;;;1.63;;
24161;SDS011;12318;51.262;7.066;2023-02-28T10:16:26;4.68;;;1.83;;
24161;SDS011;12318;51.262;7.066;2023-02-28T10:18:57;4.20;;;1.55;;
24161;SDS011;12318;51.262;7.066;2023-02-28T10:22:14;3.42;;;1.40;;
24161;SDS011;12318;51.262;7.066;2023-02-28T10:27:01;2.13;;;1.30;;
24161;SDS011;12318;51.262;7.066;2023-02-28T10:29:49;2.60;;;1.40;;
24161;SDS011;12318;51.262;7.066;2023-02-28T10:32:19;2.45;;;1.48;;
24161;SDS011;12318;51.262;7.066;2023-02-28T10:35:00;2.92;;;1.40;;
24161;SDS011;12318;51.262;7.066;2023-02-28T10:37:30;2.15;;;1.30;;
24161;SDS011;12318;51.262;7.066;2023-02-28T10:39:57;3.03;;;1.70;;
24161;SDS011;12318;51.262;7.066;2023-02-28T10:42:24;2.88;;;1.10;;
24161;SDS011;12318;51.262;7.066;2023-02-28T10:48:00;3.13;;;1.60;;
24161;SDS011;12318;51.262;7.066;2023-02-28T10:50:43;3.67;;;1.33;;
24161;SDS011;12318;51.262;7.066;2023-02-28T10:55:39;3.40;;;1.40;;
24161;SDS011;12318;51.262;7.066;2023-02-28T10:58:18;3.20;;;1.55;;
24161;SDS011;12318;51.262;7.066;2023-02-28T11:00:57;5.80;;;1.73;;
24161;SDS011;12318;51.262;7.066;2023-02-28T11:03:25;2.80;;;1.60;;
24161;SDS011;12318;51.262;7.066;2023-02-28T11:05:55;2.40;;;1.67;;
24161;SDS011;12318;51.262;7.066;2023-02-28T11:08:21;3.38;;;1.42;;
24161;SDS011;12318;51.262;7.066;2023-02-28T11:10:48;4.57;;;1.70;;
24161;SDS011;12318;51.262;7.066;2023-02-28T11:13:21;6.05;;;1.98;;
24161;SDS011;12318;51.262;7.066;2023-02-28T11:15:56;2.63;;;1.63;;
24161;SDS011;12318;51.262;7.066;2023-02-28T11:19:14;4.50;;;1.73;;
24161;SDS011;12318;51.262;7.066;2023-02-28T11:23:55;2.90;;;1.60;;
24161;SDS011;12318;51.262;7.066;2023-02-28T11:26:46;3.10;;;1.67;;
24161;SDS011;12318;51.262;7.066;2023-02-28T11:29:22;2.55;;;1.77;;
24161;SDS011;12318;51.262;7.066;2023-02-28T11:32:39;3.88;;;1.50;;
24161;SDS011;12318;51.262;7.066;2023-02-28T11:34:47;2.53;;;1.42;;
24161;SDS011;12318;51.262;7.066;2023-02-28T11:40:12;7.03;;;2.05;;
24161;SDS011;12318;51.262;7.066;2023-02-28T11:48:15;3.72;;;1.85;;
24161;SDS011;12318;51.262;7.066;2023-02-28T12:02:22;3.88;;;1.73;;
24161;SDS011;12318;51.262;7.066;2023-02-28T12:10:23;3.30;;;2.08;;
24161;SDS011;12318;51.262;7.066;2023-02-28T12:20:49;2.50;;;1.80;;
24161;SDS011;12318;51.262;7.066;2023-02-28T12:25:50;3.17;;;1.83;;
24161;SDS011;12318;51.262;7.066;2023-02-28T12:28:33;3.42;;;1.85;;
24161;SDS011;12318;51.262;7.066;2023-02-28T12:31:09;2.78;;;1.63;;
24161;SDS011;12318;51.262;7.066;2023-02-28T12:33:50;5.05;;;1.75;;
24161;SDS011;12318;51.262;7.066;2023-02-28T12:36:19;3.67;;;1.70;;
24161;SDS011;12318;51.262;7.066;2023-02-28T12:39:00;7.80;;;2.47;;
24161;SDS011;12318;51.262;7.066;2023-02-28T12:41:47;7.07;;;2.20;;
24161;SDS011;12318;51.262;7.066;2023-02-28T12:44:39;7.45;;;1.98;;
24161;SDS011;12318;51.262;7.066;2023-02-28T12:47:25;2.38;;;1.70;;
24161;SDS011;12318;51.262;7.066;2023-02-28T12:50:24;3.78;;;1.75;;
24161;SDS011;12318;51.262;7.066;2023-02-28T12:52:54;4.07;;;2.10;;
24161;SDS011;12318;51.262;7.066;2023-02-28T12:55:30;5.10;;;2.40;;
24161;SDS011;12318;51.262;7.066;2023-02-28T12:58:12;3.20;;;2.10;;
24161;SDS011;12318;51.262;7.066;2023-02-28T13:09:26;2.92;;;1.92;;
24161;SDS011;12318;51.262;7.066;2023-02-28T13:11:54;3.78;;;1.92;;
24161;SDS011;12318;51.262;7.066;2023-02-28T13:14:48;4.45;;;2.30;;
24161;SDS011;12318;51.262;7.066;2023-02-28T13:17:20;2.30;;;1.90;;
24161;SDS011;12318;51.262;7.066;2023-02-28T13:22:42;3.58;;;2.20;;
24161;SDS011;12318;51.262;7.066;2023-02-28T13:27:48;3.80;;;2.40;;
24161;SDS011;12318;51.262;7.066;2023-02-28T13:38:42;3.08;;;1.83;;
24161;SDS011;12318;51.262;7.066;2023-02-28T13:46:28;4.82;;;1.90;;
24161;SDS011;12318;51.262;7.066;2023-02-28T13:48:55;6.72;;;2.63;;
24161;SDS011;12318;51.262;7.066;2023-02-28T13:51:42;3.97;;;2.35;;
24161;SDS011;12318;51.262;7.066;2023-02-28T14:08:52;8.75;;;2.30;;
24161;SDS011;12318;51.262;7.066;2023-02-28T14:17:05;6.22;;;2.60;;
24161;SDS011;12318;51.262;7.066;2023-02-28T14:19:44;4.65;;;2.40;;
24161;SDS011;12318;51.262;7.066;2023-02-28T14:22:38;7.38;;;2.33;;
24161;SDS011;12318;51.262;7.066;2023-02-28T14:28:10;6.13;;;2.70;;
24161;SDS011;12318;51.262;7.066;2023-02-28T14:38:44;5.07;;;2.17;;
24161;SDS011;12318;51.262;7.066;2023-02-28T14:41:29;4.88;;;2.47;;
24161;SDS011;12318;51.262;7.066;2023-02-28T14:44:00;5.47;;;2.70;;
24161;SDS011;12318;51.262;7.066;2023-02-28T14:46:46;3.83;;;2.17;;
24161;SDS011;12318;51.262;7.066;2023-02-28T14:49:21;4.13;;;2.20;;
24161;SDS011;12318;51.262;7.066;2023-02-28T14:52:17;4.38;;;2.50;;
24161;SDS011;12318;51.262;7.066;2023-02-28T14:54:52;3.03;;;2.40;;
24161;SDS011;12318;51.262;7.066;2023-02-28T15:00:04;3.67;;;2.25;;
24161;SDS011;12318;51.262;7.066;2023-02-28T15:02:40;3.95;;;2.50;;
24161;SDS011;12318;51.262;7.066;2023-02-28T15:08:32;4.75;;;2.70;;
24161;SDS011;12318;51.262;7.066;2023-02-28T15:11:13;5.93;;;2.80;;
24161;SDS011;12318;51.262;7.066;2023-02-28T15:13:44;4.93;;;2.63;;
24161;SDS011;12318;51.262;7.066;2023-02-28T15:16:22;3.95;;;2.42;;
24161;SDS011;12318;51.262;7.066;2023-02-28T15:18:57;4.00;;;1.87;;
24161;SDS011;12318;51.262;7.066;2023-02-28T15:21:33;5.60;;;2.80;;
24161;SDS011;12318;51.262;7.066;2023-02-28T15:24:04;3.70;;;2.35;;
24161;SDS011;12318;51.262;7.066;2023-02-28T15:26:51;4.30;;;2.50;;
24161;SDS011;12318;51.262;7.066;2023-02-28T15:29:21;5.10;;;2.75;;
24161;SDS011;12318;51.262;7.066;2023-02-28T15:31:55;4.15;;;2.60;;
24161;SDS011;12318;51.262;7.066;2023-02-28T15:37:47;6.28;;;2.65;;
24161;SDS011;12318;51.262;7.066;2023-02-28T15:39:56;4.20;;;2.95;;
24161;SDS011;12318;51.262;7.066;2023-02-28T15:42:28;4.88;;;2.60;;
24161;SDS011;12318;51.262;7.066;2023-02-28T15:44:55;3.80;;;1.83;;
24161;SDS011;12318;51.262;7.066;2023-02-28T15:47:23;6.00;;;2.70;;
24161;SDS011;12318;51.262;7.066;2023-02-28T15:49:56;3.92;;;2.70;;
24161;SDS011;12318;51.262;7.066;2023-02-28T15:52:37;4.15;;;2.58;;
24161;SDS011;12318;51.262;7.066;2023-02-28T15:57:44;5.25;;;3.35;;
24161;SDS011;12318;51.262;7.066;2023-02-28T16:00:14;5.65;;;2.80;;
24161;SDS011;12318;51.262;7.066;2023-02-28T16:02:43;5.07;;;2.80;;
24161;SDS011;12318;51.262;7.066;2023-02-28T16:07:45;4.95;;;2.88;;
24161;SDS011;12318;51.262;7.066;2023-02-28T16:10:13;5.25;;;3.25;;
24161;SDS011;12318;51.262;7.066;2023-02-28T16:12:39;4.43;;;3.03;;
24161;SDS011;12318;51.262;7.066;2023-02-28T16:15:08;5.82;;;2.75;;
24161;SDS011;12318;51.262;7.066;2023-02-28T16:17:45;5.57;;;3.35;;
24161;SDS011;12318;51.262;7.066;2023-02-28T16:20:30;6.30;;;3.25;;
24161;SDS011;12318;51.262;7.066;2023-02-28T16:22:56;5.63;;;3.17;;
24161;SDS011;12318;51.262;7.066;2023-02-28T16:25:38;5.20;;;3.00;;
24161;SDS011;12318;51.262;7.066;2023-02-28T16:28:19;5.35;;;3.45;;
24161;SDS011;12318;51.262;7.066;2023-02-28T16:30:50;8.57;;;3.58;;
24161;SDS011;12318;51.262;7.066;2023-02-28T16:33:17;7.55;;;3.42;;
24161;SDS011;12318;51.262;7.066;2023-02-28T16:35:43;5.95;;;3.33;;
24161;SDS011;12318;51.262;7.066;2023-02-28T16:38:09;4.68;;;2.90;;
24161;SDS011;12318;51.262;7.066;2023-02-28T16:40:35;4.45;;;3.10;;
24161;SDS011;12318;51.262;7.066;2023-02-28T16:43:03;15.25;;;3.10;;
24161;SDS011;12318;51.262;7.066;2023-02-28T16:45:32;4.93;;;2.90;;
24161;SDS011;12318;51.262;7.066;2023-02-28T16:47:58;6.57;;;3.47;;
24161;SDS011;12318;51.262;7.066;2023-02-28T16:50:28;6.72;;;3.20;;
24161;SDS011;12318;51.262;7.066;2023-02-28T16:52:57;6.28;;;3.30;;
24161;SDS011;12318;51.262;7.066;2023-02-28T16:55:24;7.28;;;3.10;;
24161;SDS011;12318;51.262;7.066;2023-02-28T16:57:51;4.85;;;3.13;;
24161;SDS011;12318;51.262;7.066;2023-02-28T17:00:19;6.25;;;3.30;;
24161;SDS011;12318;51.262;7.066;2023-02-28T17:02:45;6.55;;;3.35;;
24161;SDS011;12318;51.262;7.066;2023-02-28T17:05:12;9.18;;;3.38;;
24161;SDS011;12318;51.262;7.066;2023-02-28T17:07:38;6.18;;;3.55;;
24161;SDS011;12318;51.262;7.066;2023-02-28T17:10:15;7.57;;;3.55;;
24161;SDS011;12318;51.262;7.066;2023-02-28T17:12:45;5.30;;;3.42;;
24161;SDS011;12318;51.262;7.066;2023-02-28T17:15:13;5.05;;;3.53;;
24161;SDS011;12318;51.262;7.066;2023-02-28T17:17:40;6.03;;;3.70;;
24161;SDS011;12318;51.262;7.066;2023-02-28T17:20:09;4.97;;;3.20;;
24161;SDS011;12318;51.262;7.066;2023-02-28T17:22:40;5.03;;;3.40;;
24161;SDS011;12318;51.262;7.066;2023-02-28T17:25:08;5.22;;;3.15;;
24161;SDS011;12318;51.262;7.066;2023-02-28T17:27:35;4.30;;;2.95;;
24161;SDS011;12318;51.262;7.066;2023-02-28T17:30:02;7.22;;;3.35;;
24161;SDS011;12318;51.262;7.066;2023-02-28T17:32:34;5.72;;;3.20;;
24161;SDS011;12318;51.262;7.066;2023-02-28T17:35:00;6.78;;;3.40;;
24161;SDS011;12318;51.262;7.066;2023-02-28T17:37:25;7.10;;;3.55;;
24161;SDS011;12318;51.262;7.066;2023-02-28T17:39:51;6.75;;;4.15;;
24161;SDS011;12318;51.262;7.066;2023-02-28T17:42:17;5.43;;;3.30;;
24161;SDS011;12318;51.262;7.066;2023-02-28T17:44:43;7.05;;;3.50;;
24161;SDS011;12318;51.262;7.066;2023-02-28T17:47:09;6.00;;;3.30;;
24161;SDS011;12318;51.262;7.066;2023-02-28T17:49:36;6.05;;;3.60;;
24161;SDS011;12318;51.262;7.066;2023-02-28T17:52:02;6.75;;;3.80;;
24161;SDS011;12318;51.262;7.066;2023-02-28T17:54:29;7.32;;;3.70;;
24161;SDS011;12318;51.262;7.066;2023-02-28T17:56:54;7.35;;;3.53;;